Time;durP1;ratioP1;P1;durP2;ratioP2;P2;SDS_P1;SDS_P2;PMS_P1;PMS_P2;Temp;Humidity;BMP_temperature;BMP_pressure;BME280_temperature;BME280_humidity;BME280_pressure;Samples;Min_cycle;Max_cycle;Signal;HPM_P1;HPM_P2
2023/12/27 00:08:06;;;;;;;3.20;1.50;;;;;;;6.05;85.09;98410.42;435877;1250;96629;-40
2023/12/27 00:18:16;;;;;;;2.80;1.30;;;;;;;5.97;84.10;98419.21;435895;1251;110683;-39
2023/12/27 00:28:22;;;;;;;3.70;0.90;;;;;;;5.97;83.34;98430.44;435893;1253;107609;-40
2023/12/27 00:38:29;;;;;;;2.50;1.30;;;;;;;5.86;83.24;98448.55;435691;1253;97880;-40
2023/12/27 00:58:43;;;;;;;8.40;1.40;;;;;;;5.93;82.67;98516.52;435120;1254;109296;-40
2023/12/27 01:08:50;;;;;;;3.60;0.70;;;;;;;5.43;83.99;98574.44;435164;1253;97856;-40
2023/12/27 01:18:58;;;;;;;3.30;0.70;;;;;;;4.73;86.17;98578.20;435471;1253;108294;-39
2023/12/27 01:29:05;;;;;;;3.80;1.50;;;;;;;4.58;87.27;98598.58;435396;1256;97980;-39
2023/12/27 01:39:12;;;;;;;7.00;3.80;;;;;;;4.58;88.49;98615.67;435614;1254;110781;-39
2023/12/27 01:49:18;;;;;;;2.10;1.20;;;;;;;4.52;89.38;98623.73;435836;1253;108524;-40
2023/12/27 01:59:26;;;;;;;3.40;1.80;;;;;;;4.54;90.37;98638.04;435785;1254;97893;-40
2023/12/27 02:09:33;;;;;;;2.40;1.00;;;;;;;4.50;90.52;98640.72;436040;1253;107377;-39
2023/12/27 02:19:41;;;;;;;4.70;1.00;;;;;;;4.44;90.54;98634.69;435800;1253;96657;-38
2023/12/27 02:29:48;;;;;;;5.00;1.90;;;;;;;4.28;90.76;98653.02;435836;1253;110187;-40
2023/12/27 02:39:57;;;;;;;3.60;1.20;;;;;;;4.15;91.21;98665.54;436293;1248;108603;-40
2023/12/27 02:50:04;;;;;;;1.80;0.50;;;;;;;4.15;91.07;98669.85;435425;1250;97867;-40
2023/12/27 03:00:12;;;;;;;1.00;0.50;;;;;;;4.10;91.17;98679.92;435321;1251;108392;-39
2023/12/27 03:10:18;;;;;;;3.70;0.90;;;;;;;4.06;91.37;98694.17;435448;1251;96710;-40
2023/12/27 03:20:25;;;;;;;1.00;0.40;;;;;;;4.01;91.55;98706.02;435358;1254;109539;-40
2023/12/27 03:30:33;;;;;;;2.80;0.60;;;;;;;3.97;91.39;98722.45;435537;1249;107393;-39
2023/12/27 03:40:40;;;;;;;1.40;0.60;;;;;;;3.79;90.95;98740.58;435315;1252;97861;-39
2023/12/27 03:50:47;;;;;;;8.60;4.50;;;;;;;3.60;90.99;98758.83;435478;1253;111654;-40
2023/12/27 04:00:55;;;;;;;5.20;1.60;;;;;;;3.59;90.65;98769.60;435300;1261;108117;-40
2023/12/27 04:11:01;;;;;;;5.90;2.30;;;;;;;3.54;90.22;98781.99;435401;1250;97902;-39
2023/12/27 04:21:07;;;;;;;9.70;3.10;;;;;;;3.43;89.99;98794.27;435381;1254;108056;-38
2023/12/27 04:31:14;;;;;;;5.70;2.30;;;;;;;3.36;89.53;98803.95;435187;1251;97957;-39
2023/12/27 04:41:21;;;;;;;2.00;0.60;;;;;;;3.29;89.20;98817.59;435515;1253;110418;-40
2023/12/27 04:51:28;;;;;;;3.00;0.90;;;;;;;3.14;88.84;98825.43;435322;1250;108357;-40
2023/12/27 05:01:35;;;;;;;5.00;0.60;;;;;;;2.95;88.38;98836.43;435425;1254;96641;-40
2023/12/27 05:11:42;;;;;;;3.50;0.80;;;;;;;2.88;88.01;98848.54;435391;1254;109504;-39
2023/12/27 05:21:49;;;;;;;9.60;1.60;;;;;;;2.75;87.88;98867.08;435358;1254;107520;-39
2023/12/27 05:42:02;;;;;;;1.40;0.80;;;;;;;2.46;87.94;98901.42;435390;1254;110344;-39
2023/12/27 05:52:10;;;;;;;3.80;0.80;;;;;;;2.43;88.03;98920.88;435430;1253;108762;-40
2023/12/27 06:02:17;;;;;;;3.50;1.00;;;;;;;2.35;88.21;98936.82;435457;1251;96577;-38
2023/12/27 06:12:24;;;;;;;8.70;1.80;;;;;;;2.24;88.29;98951.31;435463;1250;110771;-38
2023/12/27 06:22:31;;;;;;;7.30;1.10;;;;;;;2.19;88.41;98961.09;435264;1253;109511;-40
2023/12/27 06:32:39;;;;;;;3.60;1.50;;;;;;;2.17;88.33;98971.24;435488;1249;97479;-39
2023/12/27 06:42:47;;;;;;;7.50;2.20;;;;;;;2.13;88.55;98987.31;435353;1254;109776;-39
2023/12/27 06:52:54;;;;;;;7.40;1.80;;;;;;;2.01;88.76;99002.17;435456;1251;108621;-39
2023/12/27 07:23:13;;;;;;;6.30;1.60;;;;;;;2.21;89.19;99060.67;435431;1254;107706;-40
2023/12/27 07:33:19;;;;;;;9.20;2.00;;;;;;;2.27;89.14;99079.18;435300;1250;97871;-40
2023/12/27 07:43:26;;;;;;;14.10;3.40;;;;;;;2.30;89.26;99101.17;435307;1251;110412;-39
2023/12/27 07:53:34;;;;;;;6.40;2.20;;;;;;;2.40;89.31;99124.43;435382;1253;109477;-40
2023/12/27 08:03:41;;;;;;;7.70;2.80;;;;;;;2.57;89.37;99145.01;435390;1250;97960;-39
2023/12/27 08:13:48;;;;;;;7.20;3.00;;;;;;;2.69;89.60;99175.94;435329;1253;110772;-39
2023/12/27 08:23:56;;;;;;;7.60;3.40;;;;;;;2.69;89.50;99193.98;435444;1250;107686;-38
2023/12/27 08:34:04;;;;;;;3.50;2.40;;;;;;;2.81;89.42;99210.16;435193;1257;97853;-40
2023/12/27 08:44:09;;;;;;;10.90;3.00;;;;;;;2.93;89.43;99224.86;435452;1250;110280;-43
2023/12/27 08:54:16;;;;;;;11.50;2.10;;;;;;;3.04;89.41;99237.40;435405;1251;108293;-40
2023/12/27 09:14:30;;;;;;;9.90;4.90;;;;;;;3.10;89.01;99257.17;435456;1254;109154;-39
2023/12/27 09:24:37;;;;;;;9.00;3.40;;;;;;;3.25;88.99;99257.94;435368;1254;108056;-39
2023/12/27 09:34:45;;;;;;;7.90;2.90;;;;;;;3.25;88.80;99252.67;435439;1251;97356;-39
2023/12/27 09:44:54;;;;;;;9.20;5.10;;;;;;;3.32;88.25;99236.23;435487;1255;111563;-39
2023/12/27 09:54:58;;;;;;;10.80;3.50;;;;;;;3.64;88.39;99225.74;435630;1253;108133;-40
2023/12/27 10:05:06;;;;;;;12.70;6.70;;;;;;;3.89;88.13;99228.79;435479;1254;97922;-41
2023/12/27 10:25:22;;;;;;;10.30;3.60;;;;;;;4.37;87.71;99223.17;435511;1254;109865;-39
2023/12/27 10:35:29;;;;;;;9.20;4.00;;;;;;;4.57;87.30;99226.15;435475;1256;109206;-40
2023/12/27 10:55:40;;;;;;;16.80;7.00;;;;;;;4.44;85.97;99218.54;435655;1251;107236;-39
2023/12/27 11:05:49;;;;;;;9.80;3.10;;;;;;;4.53;85.59;99215.67;435211;1255;98514;-38
2023/12/27 11:15:59;;;;;;;11.20;5.30;;;;;;;4.81;86.28;99219.31;435480;1251;110856;-39
2023/12/27 11:26:05;;;;;;;10.30;3.60;;;;;;;4.90;85.14;99211.10;435358;1253;107920;-39
2023/12/27 11:36:13;;;;;;;10.10;5.10;;;;;;;4.84;85.00;99209.71;435376;1254;97846;-39
2023/12/27 11:46:26;;;;;;;4.30;2.70;;;;;;;4.93;84.37;99211.14;435381;1256;109925;-40
2023/12/27 11:56:35;;;;;;;5.70;2.80;;;;;;;4.92;83.34;99198.27;435446;1256;107004;-41
2023/12/27 12:07:17;;;;;;;21.50;8.90;;;;;;;4.91;83.92;99199.98;435361;1253;97963;-40
2023/12/27 12:27:32;;;;;;;13.50;5.50;;;;;;;4.84;83.03;99193.84;435402;1249;107861;-38
2023/12/27 12:37:40;;;;;;;7.30;2.30;;;;;;;4.88;82.27;99190.71;435492;1256;97861;-41
2023/12/27 12:47:49;;;;;;;17.80;5.50;;;;;;;4.88;82.50;99188.81;435642;1256;110022;-40
2023/12/27 12:57:55;;;;;;;14.50;6.50;;;;;;;4.81;82.44;99172.91;435268;1253;353308;-39
2023/12/27 13:08:05;;;;;;;12.00;4.50;;;;;;;4.80;82.61;99165.00;435311;1256;97973;-40
2023/12/27 13:18:11;;;;;;;11.10;5.00;;;;;;;4.75;82.66;99158.89;435382;1250;97707;-40
2023/12/27 13:38:25;;;;;;;14.00;4.10;;;;;;;4.57;82.56;99150.06;435978;1254;107136;-40
2023/12/27 13:48:34;;;;;;;14.40;7.80;;;;;;;4.50;82.64;99150.72;435463;1251;97889;-39
2023/12/27 13:58:42;;;;;;;16.40;11.30;;;;;;;4.37;82.76;99158.84;435589;1250;110171;-39
2023/12/27 14:08:48;;;;;;;14.40;4.60;;;;;;;4.22;82.72;99157.75;435502;1250;108724;-40
2023/12/27 14:18:55;;;;;;;17.20;6.50;;;;;;;3.90;82.56;99161.42;435377;1253;97963;-40
2023/12/27 14:39:11;;;;;;;12.90;5.50;;;;;;;3.37;82.69;99170.70;435329;1264;109662;-41
2023/12/27 14:49:18;;;;;;;22.90;8.10;;;;;;;3.21;82.70;99169.13;435371;1264;107572;-40
2023/12/27 15:09:33;;;;;;;51.40;22.10;;;;;;;2.74;83.14;99167.41;435442;1263;109642;-39
2023/12/27 15:19:39;;;;;;;65.10;25.00;;;;;;;2.44;83.18;99166.07;435101;1256;108075;-39
2023/12/27 15:39:53;;;;;;;69.10;27.40;;;;;;;2.03;83.36;99184.23;435416;1253;97474;-40
2023/12/27 15:50:00;;;;;;;54.00;23.50;;;;;;;1.94;83.52;99178.79;435397;1256;106707;-40
2023/12/27 16:00:10;;;;;;;62.80;31.10;;;;;;;1.87;83.60;99170.12;435340;1251;97871;-40
2023/12/27 16:10:16;;;;;;;98.40;44.00;;;;;;;1.75;83.96;99170.41;435342;1254;109637;-38
2023/12/27 16:20:22;;;;;;;89.70;39.20;;;;;;;1.57;84.07;99181.34;435426;1251;109521;-41
2023/12/27 16:40:35;;;;;;;118.80;51.10;;;;;;;1.27;84.21;99201.52;435448;1254;97858;-40
2023/12/27 17:10:58;;;;;;;131.00;54.20;;;;;;;1.11;84.58;99201.92;435474;1254;97472;-39
2023/12/27 17:31:11;;;;;;;168.10;66.20;;;;;;;0.78;84.73;99182.15;435567;1253;97477;-39
2023/12/27 17:41:18;;;;;;;168.90;67.00;;;;;;;0.54;84.76;99177.93;435344;1263;97859;-41
2023/12/27 17:51:25;;;;;;;134.60;65.00;;;;;;;0.30;84.58;99164.75;435409;1264;97368;-40
2023/12/27 18:01:31;;;;;;;159.10;77.20;;;;;;;0.22;84.92;99164.80;435202;1251;107712;-40
2023/12/27 18:31:49;;;;;;;223.40;99.60;;;;;;;0.22;85.76;99160.36;435202;1254;107929;-38
2023/12/27 18:41:57;;;;;;;181.90;79.10;;;;;;;0.16;85.91;99133.41;435365;1253;97458;-39
2023/12/27 18:52:02;;;;;;;116.70;56.90;;;;;;;0.27;86.06;99123.20;435447;1253;97899;-38
2023/12/27 19:12:16;;;;;;;144.60;72.30;;;;;;;0.46;86.07;99111.84;435364;1251;96635;-39
2023/12/27 19:22:23;;;;;;;196.70;87.40;;;;;;;0.32;86.16;99095.34;435474;1254;111595;-39
2023/12/27 19:32:30;;;;;;;245.70;98.80;;;;;;;0.14;86.52;99094.85;435446;1253;108453;-39
2023/12/27 20:02:48;;;;;;;91.70;42.60;;;;;;;0.13;86.82;99036.25;435298;1251;107520;-39
2023/12/27 20:23:01;;;;;;;119.60;54.80;;;;;;;0.21;87.06;99055.83;436333;1250;111683;-40
2023/12/27 20:33:08;;;;;;;70.10;39.20;;;;;;;0.29;87.19;99052.70;436170;1250;107937;-39
2023/12/27 20:43:14;;;;;;;76.00;36.60;;;;;;;0.40;87.14;99034.00;436699;1251;97884;-42
2023/12/27 20:53:20;;;;;;;81.80;38.80;;;;;;;0.45;87.17;99013.40;435723;1254;111683;-39
2023/12/27 21:13:35;;;;;;;116.40;52.10;;;;;;;0.33;87.54;98965.23;436087;1251;97241;-39
2023/12/27 21:33:47;;;;;;;89.90;42.70;;;;;;;0.33;87.58;98961.89;435654;1250;108480;-40
2023/12/27 21:54:01;;;;;;;162.70;66.70;;;;;;;0.12;87.51;98959.23;436099;1251;108992;-40
2023/12/27 22:04:08;;;;;;;132.60;58.70;;;;;;;-0.12;87.81;98954.69;435365;1253;108736;-39
2023/12/27 22:14:16;;;;;;;120.10;52.90;;;;;;;-0.21;87.95;98932.73;435299;1250;97905;-39
2023/12/27 22:24:23;;;;;;;92.50;45.30;;;;;;;-0.16;88.21;98927.52;435885;1254;110375;-39
2023/12/27 22:34:28;;;;;;;119.20;50.80;;;;;;;0.01;88.57;98900.17;435343;1250;106257;-40
2023/12/27 22:44:35;;;;;;;134.60;56.60;;;;;;;0.10;88.61;98888.73;435628;1254;97986;-39
2023/12/27 22:54:42;;;;;;;97.90;43.80;;;;;;;0.14;88.83;98877.73;435481;1250;109999;-42
2023/12/27 23:25:01;;;;;;;123.80;53.50;;;;;;;0.30;88.85;98842.75;435460;1250;109988;-39
2023/12/27 23:35:06;;;;;;;125.00;52.80;;;;;;;0.17;88.90;98834.45;435411;1249;107706;-41
2023/12/27 23:45:12;;;;;;;94.30;42.40;;;;;;;0.14;88.96;98824.85;435310;1251;108020;-40
2023/12/27 23:55:20;;;;;;;84.80;39.80;;;;;;;0.21;88.91;98822.00;435312;1250;97247;-41
